sensor_id;sensor_type;location;lat;lon;timestamp;pressure;altitude;pressure_sealevel;temperature;humidity
55538;BME280;41383;51.418;7.286;2023-07-30T00:01:06;99264.00;;;19.13;83.27
55538;BME280;41383;51.418;7.286;2023-07-30T00:03:31;99259.69;;;19.04;82.08
55538;BME280;41383;51.418;7.286;2023-07-30T00:05:57;99267.59;;;19.14;82.51
55538;BME280;41383;51.418;7.286;2023-07-30T00:08:22;99265.22;;;19.04;82.25
55538;BME280;41383;51.418;7.286;2023-07-30T00:10:48;99255.25;;;19.11;81.72
55538;BME280;41383;51.418;7.286;2023-07-30T00:13:14;99258.25;;;18.97;81.37
55538;BME280;41383;51.418;7.286;2023-07-30T00:15:39;99258.97;;;18.85;79.65
55538;BME280;41383;51.418;7.286;2023-07-30T00:18:04;99259.34;;;18.75;80.56
55538;BME280;41383;51.418;7.286;2023-07-30T00:20:30;99266.34;;;18.72;80.93
55538;BME280;41383;51.418;7.286;2023-07-30T00:22:55;99261.31;;;18.74;80.79
55538;BME280;41383;51.418;7.286;2023-07-30T00:25:20;99261.78;;;18.76;80.48
55538;BME280;41383;51.418;7.286;2023-07-30T00:27:45;99253.78;;;18.84;80.26
55538;BME280;41383;51.418;7.286;2023-07-30T00:30:11;99254.22;;;18.64;80.01
55538;BME280;41383;51.418;7.286;2023-07-30T00:32:36;99253.59;;;18.59;80.05
55538;BME280;41383;51.418;7.286;2023-07-30T00:35:06;99253.13;;;18.57;79.19
55538;BME280;41383;51.418;7.286;2023-07-30T00:37:31;99251.78;;;18.63;79.49
55538;BME280;41383;51.418;7.286;2023-07-30T00:39:56;99258.91;;;18.64;78.99
55538;BME280;41383;51.418;7.286;2023-07-30T00:42:22;99260.47;;;18.74;78.83
55538;BME280;41383;51.418;7.286;2023-07-30T00:44:47;99261.63;;;18.73;79.07
55538;BME280;41383;51.418;7.286;2023-07-30T00:47:12;99262.16;;;18.66;79.07
55538;BME280;41383;51.418;7.286;2023-07-30T00:49:38;99260.22;;;18.58;79.24
55538;BME280;41383;51.418;7.286;2023-07-30T00:52:04;99260.56;;;18.56;79.77
55538;BME280;41383;51.418;7.286;2023-07-30T00:54:30;99268.16;;;18.68;79.48
55538;BME280;41383;51.418;7.286;2023-07-30T00:56:55;99266.34;;;18.72;79.06
55538;BME280;41383;51.418;7.286;2023-07-30T00:59:21;99265.53;;;18.72;79.53
55538;BME280;41383;51.418;7.286;2023-07-30T01:01:47;99263.09;;;18.70;79.71
55538;BME280;41383;51.418;7.286;2023-07-30T01:04:14;99264.44;;;18.64;79.81
55538;BME280;41383;51.418;7.286;2023-07-30T01:06:40;99265.38;;;18.68;79.75
55538;BME280;41383;51.418;7.286;2023-07-30T01:09:05;99266.16;;;18.77;79.82
55538;BME280;41383;51.418;7.286;2023-07-30T01:11:30;99267.44;;;18.80;79.55
55538;BME280;41383;51.418;7.286;2023-07-30T01:13:56;99271.94;;;18.54;80.44
55538;BME280;41383;51.418;7.286;2023-07-30T01:16:22;99271.22;;;18.36;81.52
55538;BME280;41383;51.418;7.286;2023-07-30T01:18:48;99269.56;;;18.35;81.59
55538;BME280;41383;51.418;7.286;2023-07-30T01:21:13;99269.22;;;18.37;81.85
55538;BME280;41383;51.418;7.286;2023-07-30T01:23:38;99273.50;;;18.25;81.78
55538;BME280;41383;51.418;7.286;2023-07-30T01:26:08;99285.38;;;18.17;80.29
55538;BME280;41383;51.418;7.286;2023-07-30T01:28:46;99280.16;;;18.06;81.29
55538;BME280;41383;51.418;7.286;2023-07-30T01:31:17;99286.16;;;18.26;80.73
55538;BME280;41383;51.418;7.286;2023-07-30T01:33:47;99281.31;;;18.14;80.17
55538;BME280;41383;51.418;7.286;2023-07-30T01:36:15;99276.59;;;18.24;80.34
55538;BME280;41383;51.418;7.286;2023-07-30T01:38:42;99287.00;;;18.18;80.49
55538;BME280;41383;51.418;7.286;2023-07-30T01:41:08;99297.38;;;18.21;79.57
55538;BME280;41383;51.418;7.286;2023-07-30T01:43:33;99291.84;;;18.21;79.75
55538;BME280;41383;51.418;7.286;2023-07-30T01:45:58;99295.72;;;18.29;79.50
55538;BME280;41383;51.418;7.286;2023-07-30T01:48:24;99289.50;;;18.41;78.59
55538;BME280;41383;51.418;7.286;2023-07-30T01:50:49;99289.38;;;18.37;78.89
55538;BME280;41383;51.418;7.286;2023-07-30T01:53:14;99297.22;;;18.26;78.01
55538;BME280;41383;51.418;7.286;2023-07-30T01:55:39;99292.13;;;18.37;79.00
55538;BME280;41383;51.418;7.286;2023-07-30T01:58:09;99291.00;;;18.38;78.87
55538;BME280;41383;51.418;7.286;2023-07-30T02:00:34;99293.78;;;18.29;78.74
55538;BME280;41383;51.418;7.286;2023-07-30T02:03:00;99299.28;;;18.29;78.59
55538;BME280;41383;51.418;7.286;2023-07-30T02:05:25;99294.75;;;18.34;78.61
55538;BME280;41383;51.418;7.286;2023-07-30T02:07:50;99303.31;;;18.41;78.46
55538;BME280;41383;51.418;7.286;2023-07-30T02:10:16;99298.28;;;18.43;78.65
55538;BME280;41383;51.418;7.286;2023-07-30T02:12:41;99298.16;;;18.30;78.72
55538;BME280;41383;51.418;7.286;2023-07-30T02:15:06;99294.28;;;18.23;79.29
55538;BME280;41383;51.418;7.286;2023-07-30T02:17:32;99296.72;;;18.24;79.15
55538;BME280;41383;51.418;7.286;2023-07-30T02:19:57;99298.50;;;18.20;79.55
55538;BME280;41383;51.418;7.286;2023-07-30T02:22:22;99290.06;;;18.16;79.08
55538;BME280;41383;51.418;7.286;2023-07-30T02:24:47;99295.56;;;18.16;79.38
55538;BME280;41383;51.418;7.286;2023-07-30T02:27:13;99303.19;;;18.11;79.47
55538;BME280;41383;51.418;7.286;2023-07-30T02:29:38;99295.75;;;18.02;78.79
55538;BME280;41383;51.418;7.286;2023-07-30T02:32:04;99299.16;;;17.99;80.02
55538;BME280;41383;51.418;7.286;2023-07-30T02:34:30;99296.75;;;17.97;79.40
55538;BME280;41383;51.418;7.286;2023-07-30T02:36:55;99296.06;;;18.09;79.40
55538;BME280;41383;51.418;7.286;2023-07-30T02:39:20;99302.22;;;18.06;79.26
55538;BME280;41383;51.418;7.286;2023-07-30T02:41:45;99292.16;;;18.11;79.21
55538;BME280;41383;51.418;7.286;2023-07-30T02:44:11;99300.75;;;18.27;79.20
55538;BME280;41383;51.418;7.286;2023-07-30T02:46:36;99297.53;;;18.16;78.85
55538;BME280;41383;51.418;7.286;2023-07-30T02:49:01;99302.25;;;18.24;78.65
55538;BME280;41383;51.418;7.286;2023-07-30T02:51:27;99298.97;;;18.13;79.15
55538;BME280;41383;51.418;7.286;2023-07-30T02:53:52;99295.75;;;18.20;79.13
55538;BME280;41383;51.418;7.286;2023-07-30T02:56:22;99304.34;;;18.18;78.93
55538;BME280;41383;51.418;7.286;2023-07-30T02:58:47;99298.81;;;18.18;78.65
55538;BME280;41383;51.418;7.286;2023-07-30T03:01:12;99308.06;;;18.05;79.46
55538;BME280;41383;51.418;7.286;2023-07-30T03:03:38;99311.16;;;17.94;79.44
55538;BME280;41383;51.418;7.286;2023-07-30T03:06:03;99302.41;;;17.92;79.14
55538;BME280;41383;51.418;7.286;2023-07-30T03:08:28;99307.25;;;18.04;79.04
55538;BME280;41383;51.418;7.286;2023-07-30T03:10:53;99308.41;;;17.94;79.20
55538;BME280;41383;51.418;7.286;2023-07-30T03:13:19;99308.59;;;17.89;79.09
55538;BME280;41383;51.418;7.286;2023-07-30T03:15:44;99306.47;;;17.86;78.50
55538;BME280;41383;51.418;7.286;2023-07-30T03:18:09;99308.25;;;17.82;78.73
55538;BME280;41383;51.418;7.286;2023-07-30T03:20:35;99315.22;;;17.88;78.76
55538;BME280;41383;51.418;7.286;2023-07-30T03:23:00;99314.91;;;17.72;78.92
55538;BME280;41383;51.418;7.286;2023-07-30T03:25:25;99312.47;;;17.79;78.75
55538;BME280;41383;51.418;7.286;2023-07-30T03:27:50;99315.22;;;17.88;78.54
55538;BME280;41383;51.418;7.286;2023-07-30T03:30:16;99316.03;;;17.89;78.18
55538;BME280;41383;51.418;7.286;2023-07-30T03:32:41;99316.03;;;17.71;78.57
55538;BME280;41383;51.418;7.286;2023-07-30T03:35:07;99320.91;;;17.65;78.90
55538;BME280;41383;51.418;7.286;2023-07-30T03:37:32;99317.50;;;17.77;78.67
55538;BME280;41383;51.418;7.286;2023-07-30T03:39:57;99320.75;;;17.53;78.62
55538;BME280;41383;51.418;7.286;2023-07-30T03:42:23;99321.22;;;17.72;78.62
55538;BME280;41383;51.418;7.286;2023-07-30T03:44:48;99323.34;;;17.49;78.86
55538;BME280;41383;51.418;7.286;2023-07-30T03:47:13;99323.66;;;17.56;78.87
55538;BME280;41383;51.418;7.286;2023-07-30T03:49:38;99320.09;;;17.65;78.47
55538;BME280;41383;51.418;7.286;2023-07-30T03:52:04;99316.03;;;17.53;78.42
55538;BME280;41383;51.418;7.286;2023-07-30T03:54:29;99314.72;;;17.42;78.74
55538;BME280;41383;51.418;7.286;2023-07-30T03:56:54;99323.81;;;17.42;78.37
55538;BME280;41383;51.418;7.286;2023-07-30T03:59:20;99327.50;;;17.37;78.43
55538;BME280;41383;51.418;7.286;2023-07-30T04:01:45;99326.41;;;17.56;78.31
55538;BME280;41383;51.418;7.286;2023-07-30T04:04:10;99331.59;;;17.40;78.38
55538;BME280;41383;51.418;7.286;2023-07-30T04:06:36;99334.00;;;17.42;78.78
55538;BME280;41383;51.418;7.286;2023-07-30T04:09:01;99337.91;;;17.49;78.49
55538;BME280;41383;51.418;7.286;2023-07-30T04:11:26;99336.13;;;17.45;78.71
55538;BME280;41383;51.418;7.286;2023-07-30T04:13:52;99333.69;;;17.52;78.68
55538;BME280;41383;51.418;7.286;2023-07-30T04:16:17;99328.34;;;17.38;78.70
55538;BME280;41383;51.418;7.286;2023-07-30T04:18:42;99336.56;;;17.29;79.44
55538;BME280;41383;51.418;7.286;2023-07-30T04:21:07;99336.25;;;17.22;79.81
55538;BME280;41383;51.418;7.286;2023-07-30T04:23:33;99328.41;;;17.06;80.14
55538;BME280;41383;51.418;7.286;2023-07-30T04:25:58;99334.41;;;17.08;80.37
55538;BME280;41383;51.418;7.286;2023-07-30T04:28:23;99338.34;;;17.25;79.62
55538;BME280;41383;51.418;7.286;2023-07-30T04:30:48;99335.78;;;17.29;79.65
55538;BME280;41383;51.418;7.286;2023-07-30T04:33:14;99339.50;;;17.24;79.65
55538;BME280;41383;51.418;7.286;2023-07-30T04:35:40;99335.28;;;17.26;79.65
55538;BME280;41383;51.418;7.286;2023-07-30T04:38:05;99338.03;;;17.35;79.37
55538;BME280;41383;51.418;7.286;2023-07-30T04:40:31;99331.75;;;17.44;79.16
55538;BME280;41383;51.418;7.286;2023-07-30T04:42:56;99338.38;;;17.52;78.56
55538;BME280;41383;51.418;7.286;2023-07-30T04:45:21;99334.69;;;17.56;78.43
55538;BME280;41383;51.418;7.286;2023-07-30T04:47:46;99329.00;;;17.53;78.47
55538;BME280;41383;51.418;7.286;2023-07-30T04:50:12;99340.03;;;17.61;78.61
55538;BME280;41383;51.418;7.286;2023-07-30T04:52:37;99334.81;;;17.42;78.75
55538;BME280;41383;51.418;7.286;2023-07-30T04:55:03;99338.38;;;17.52;78.91
55538;BME280;41383;51.418;7.286;2023-07-30T04:57:28;99335.97;;;17.50;78.26
55538;BME280;41383;51.418;7.286;2023-07-30T04:59:53;99342.63;;;17.58;78.61
55538;BME280;41383;51.418;7.286;2023-07-30T05:02:19;99344.38;;;17.36;78.94
55538;BME280;41383;51.418;7.286;2023-07-30T05:04:44;99339.22;;;17.52;78.95
55538;BME280;41383;51.418;7.286;2023-07-30T05:07:09;99342.75;;;17.44;79.14
55538;BME280;41383;51.418;7.286;2023-07-30T05:09:35;99347.66;;;17.47;79.34
55538;BME280;41383;51.418;7.286;2023-07-30T05:12:01;99343.75;;;17.48;78.98
55538;BME280;41383;51.418;7.286;2023-07-30T05:14:26;99345.97;;;17.28;79.83
55538;BME280;41383;51.418;7.286;2023-07-30T05:16:52;99341.47;;;17.32;79.96
55538;BME280;41383;51.418;7.286;2023-07-30T05:19:17;99349.91;;;17.45;78.98
55538;BME280;41383;51.418;7.286;2023-07-30T05:21:42;99342.97;;;17.65;79.51
55538;BME280;41383;51.418;7.286;2023-07-30T05:24:07;99355.28;;;17.68;78.97
55538;BME280;41383;51.418;7.286;2023-07-30T05:26:33;99347.97;;;17.72;78.99
55538;BME280;41383;51.418;7.286;2023-07-30T05:28:58;99352.03;;;17.74;78.87
55538;BME280;41383;51.418;7.286;2023-07-30T05:31:23;99342.78;;;17.70;78.61
55538;BME280;41383;51.418;7.286;2023-07-30T05:33:49;99336.31;;;17.57;79.32
55538;BME280;41383;51.418;7.286;2023-07-30T05:36:14;99340.84;;;17.53;79.20
55538;BME280;41383;51.418;7.286;2023-07-30T05:38:39;99341.16;;;17.52;79.54
55538;BME280;41383;51.418;7.286;2023-07-30T05:41:04;99342.44;;;17.36;80.67
55538;BME280;41383;51.418;7.286;2023-07-30T05:43:30;99343.41;;;17.49;80.47
55538;BME280;41383;51.418;7.286;2023-07-30T05:45:55;99348.47;;;17.56;79.86
55538;BME280;41383;51.418;7.286;2023-07-30T05:48:20;99342.16;;;17.65;79.06
55538;BME280;41383;51.418;7.286;2023-07-30T05:50:45;99336.63;;;17.56;79.12
55538;BME280;41383;51.418;7.286;2023-07-30T05:53:11;99336.31;;;17.57;79.32
55538;BME280;41383;51.418;7.286;2023-07-30T05:55:36;99340.19;;;17.56;79.35
55538;BME280;41383;51.418;7.286;2023-07-30T05:58:01;99343.41;;;17.41;80.04
55538;BME280;41383;51.418;7.286;2023-07-30T06:00:27;99345.22;;;17.54;79.65
55538;BME280;41383;51.418;7.286;2023-07-30T06:02:52;99346.97;;;17.32;80.36
55538;BME280;41383;51.418;7.286;2023-07-30T06:05:17;99350.34;;;17.29;80.37
55538;BME280;41383;51.418;7.286;2023-07-30T06:07:43;99342.75;;;17.44;80.19
55538;BME280;41383;51.418;7.286;2023-07-30T06:10:08;99351.03;;;17.35;79.95
55538;BME280;41383;51.418;7.286;2023-07-30T06:12:33;99346.94;;;17.14;80.86
55538;BME280;41383;51.418;7.286;2023-07-30T06:14:59;99350.19;;;17.25;80.77
55538;BME280;41383;51.418;7.286;2023-07-30T06:17:24;99353.84;;;17.12;80.74
55538;BME280;41383;51.418;7.286;2023-07-30T06:19:49;99355.19;;;17.14;80.52
55538;BME280;41383;51.418;7.286;2023-07-30T06:22:14;99355.63;;;17.08;80.09
55538;BME280;41383;51.418;7.286;2023-07-30T06:24:40;99351.53;;;17.05;80.72
55538;BME280;41383;51.418;7.286;2023-07-30T06:27:05;99354.69;;;17.12;80.58
55538;BME280;41383;51.418;7.286;2023-07-30T06:29:31;99358.19;;;17.04;80.05
55538;BME280;41383;51.418;7.286;2023-07-30T06:31:56;99361.00;;;17.13;80.76
55538;BME280;41383;51.418;7.286;2023-07-30T06:34:21;99368.03;;;17.28;80.66
55538;BME280;41383;51.418;7.286;2023-07-30T06:36:46;99370.75;;;17.19;79.67
55538;BME280;41383;51.418;7.286;2023-07-30T06:39:12;99373.09;;;17.03;80.08
55538;BME280;41383;51.418;7.286;2023-07-30T06:41:37;99378.41;;;16.99;80.59
55538;BME280;41383;51.418;7.286;2023-07-30T06:44:02;99388.34;;;17.09;81.26
55538;BME280;41383;51.418;7.286;2023-07-30T06:46:28;99392.09;;;17.13;80.70
55538;BME280;41383;51.418;7.286;2023-07-30T06:48:53;99391.53;;;17.02;81.23
55538;BME280;41383;51.418;7.286;2023-07-30T06:51:19;99392.59;;;17.15;80.80
55538;BME280;41383;51.418;7.286;2023-07-30T06:53:44;99389.53;;;17.17;80.25
55538;BME280;41383;51.418;7.286;2023-07-30T06:56:10;99394.25;;;17.17;80.77
55538;BME280;41383;51.418;7.286;2023-07-30T06:58:35;99381.50;;;17.07;79.85
55538;BME280;41383;51.418;7.286;2023-07-30T07:01:00;99388.72;;;17.17;81.15
55538;BME280;41383;51.418;7.286;2023-07-30T07:03:25;99389.41;;;17.22;80.59
55538;BME280;41383;51.418;7.286;2023-07-30T07:05:54;99393.31;;;17.30;80.61
55538;BME280;41383;51.418;7.286;2023-07-30T07:08:20;99395.69;;;17.23;80.52
55538;BME280;41383;51.418;7.286;2023-07-30T07:10:46;99395.69;;;17.14;80.57
55538;BME280;41383;51.418;7.286;2023-07-30T07:13:11;99399.84;;;17.11;80.81
55538;BME280;41383;51.418;7.286;2023-07-30T07:15:40;99403.63;;;17.15;81.09
55538;BME280;41383;51.418;7.286;2023-07-30T07:18:05;99405.06;;;17.13;81.23
55538;BME280;41383;51.418;7.286;2023-07-30T07:20:30;99405.25;;;17.17;80.81
55538;BME280;41383;51.418;7.286;2023-07-30T07:22:56;99401.75;;;17.02;80.75
55538;BME280;41383;51.418;7.286;2023-07-30T07:25:21;99404.50;;;17.02;80.68
55538;BME280;41383;51.418;7.286;2023-07-30T07:27:46;99411.88;;;17.15;80.99
55538;BME280;41383;51.418;7.286;2023-07-30T07:30:11;99407.28;;;17.11;81.41
55538;BME280;41383;51.418;7.286;2023-07-30T07:32:37;99409.50;;;17.32;80.98
55538;BME280;41383;51.418;7.286;2023-07-30T07:35:04;99412.38;;;17.18;80.49
55538;BME280;41383;51.418;7.286;2023-07-30T07:37:31;99418.53;;;17.14;80.83
55538;BME280;41383;51.418;7.286;2023-07-30T07:39:57;99426.38;;;16.98;81.07
55538;BME280;41383;51.418;7.286;2023-07-30T07:42:22;99416.63;;;17.24;81.11
55538;BME280;41383;51.418;7.286;2023-07-30T07:44:47;99420.78;;;17.12;81.14
55538;BME280;41383;51.418;7.286;2023-07-30T07:47:13;99418.22;;;17.25;80.70
55538;BME280;41383;51.418;7.286;2023-07-30T07:49:38;99423.53;;;17.12;80.79
55538;BME280;41383;51.418;7.286;2023-07-30T07:52:04;99422.91;;;17.15;80.60
55538;BME280;41383;51.418;7.286;2023-07-30T07:54:29;99431.00;;;17.21;80.80
55538;BME280;41383;51.418;7.286;2023-07-30T07:56:54;99419.88;;;17.26;81.37
55538;BME280;41383;51.418;7.286;2023-07-30T07:59:19;99425.72;;;17.33;80.69
55538;BME280;41383;51.418;7.286;2023-07-30T08:01:45;99427.19;;;17.31;80.64
55538;BME280;41383;51.418;7.286;2023-07-30T08:04:13;99416.50;;;17.38;80.65
55538;BME280;41383;51.418;7.286;2023-07-30T08:06:38;99425.13;;;17.54;80.46
55538;BME280;41383;51.418;7.286;2023-07-30T08:09:04;99424.31;;;17.54;80.39
55538;BME280;41383;51.418;7.286;2023-07-30T08:11:30;99426.91;;;17.50;80.21
55538;BME280;41383;51.418;7.286;2023-07-30T08:13:55;99432.28;;;17.55;79.62
55538;BME280;41383;51.418;7.286;2023-07-30T08:16:20;99423.31;;;17.41;80.38
55538;BME280;41383;51.418;7.286;2023-07-30T08:18:45;99422.69;;;17.61;80.16
55538;BME280;41383;51.418;7.286;2023-07-30T08:21:11;99417.53;;;17.78;79.02
55538;BME280;41383;51.418;7.286;2023-07-30T08:23:36;99427.94;;;17.99;78.43
55538;BME280;41383;51.418;7.286;2023-07-30T08:26:01;99427.13;;;17.98;78.54
55538;BME280;41383;51.418;7.286;2023-07-30T08:28:26;99426.50;;;17.83;79.18
55538;BME280;41383;51.418;7.286;2023-07-30T08:30:52;99425.34;;;17.84;79.06
55538;BME280;41383;51.418;7.286;2023-07-30T08:33:17;99423.25;;;17.99;78.89
55538;BME280;41383;51.418;7.286;2023-07-30T08:35:42;99416.94;;;18.16;78.16
55538;BME280;41383;51.418;7.286;2023-07-30T08:38:08;99419.22;;;18.14;78.40
55538;BME280;41383;51.418;7.286;2023-07-30T08:40:33;99411.91;;;18.09;78.54
55538;BME280;41383;51.418;7.286;2023-07-30T08:42:59;99421.16;;;18.23;77.73
55538;BME280;41383;51.418;7.286;2023-07-30T08:45:27;99423.44;;;18.12;78.06
55538;BME280;41383;51.418;7.286;2023-07-30T08:47:52;99420.03;;;18.06;77.86
55538;BME280;41383;51.418;7.286;2023-07-30T08:50:18;99425.84;;;17.95;78.75
55538;BME280;41383;51.418;7.286;2023-07-30T08:52:43;99420.66;;;17.94;78.67
55538;BME280;41383;51.418;7.286;2023-07-30T08:55:10;99429.09;;;17.97;79.04
55538;BME280;41383;51.418;7.286;2023-07-30T08:57:37;99436.94;;;18.22;78.45
55538;BME280;41383;51.418;7.286;2023-07-30T09:00:05;99433.69;;;18.20;78.29
55538;BME280;41383;51.418;7.286;2023-07-30T09:02:37;99440.78;;;18.39;78.17
55538;BME280;41383;51.418;7.286;2023-07-30T09:05:03;99436.72;;;18.45;77.36
55538;BME280;41383;51.418;7.286;2023-07-30T09:07:29;99434.94;;;18.67;77.48
55538;BME280;41383;51.418;7.286;2023-07-30T09:09:54;99437.56;;;18.54;77.44
55538;BME280;41383;51.418;7.286;2023-07-30T09:12:25;99429.28;;;18.54;76.33
55538;BME280;41383;51.418;7.286;2023-07-30T09:14:51;99429.91;;;18.69;77.14
55538;BME280;41383;51.418;7.286;2023-07-30T09:17:19;99437.72;;;18.49;76.90
55538;BME280;41383;51.418;7.286;2023-07-30T09:19:45;99438.38;;;18.37;77.79
55538;BME280;41383;51.418;7.286;2023-07-30T09:22:20;99432.97;;;18.76;76.88
55538;BME280;41383;51.418;7.286;2023-07-30T09:24:48;99434.25;;;18.79;76.95
55538;BME280;41383;51.418;7.286;2023-07-30T09:27:14;99442.66;;;18.92;77.35
55538;BME280;41383;51.418;7.286;2023-07-30T09:29:50;99444.75;;;18.95;75.90
55538;BME280;41383;51.418;7.286;2023-07-30T09:32:15;99449.91;;;19.14;76.04
55538;BME280;41383;51.418;7.286;2023-07-30T09:34:44;99440.63;;;19.28;74.89
55538;BME280;41383;51.418;7.286;2023-07-30T09:37:09;99450.03;;;19.27;74.96
55538;BME280;41383;51.418;7.286;2023-07-30T09:39:37;99451.94;;;19.35;74.63
55538;BME280;41383;51.418;7.286;2023-07-30T09:42:03;99451.88;;;19.13;73.66
55538;BME280;41383;51.418;7.286;2023-07-30T09:44:29;99450.09;;;19.09;74.01
55538;BME280;41383;51.418;7.286;2023-07-30T09:46:56;99457.19;;;19.28;73.28
55538;BME280;41383;51.418;7.286;2023-07-30T09:49:21;99458.28;;;19.44;73.28
55538;BME280;41383;51.418;7.286;2023-07-30T09:51:47;99459.16;;;19.57;72.72
55538;BME280;41383;51.418;7.286;2023-07-30T09:54:13;99456.50;;;19.70;71.44
55538;BME280;41383;51.418;7.286;2023-07-30T09:56:41;99454.94;;;19.81;71.47
55538;BME280;41383;51.418;7.286;2023-07-30T09:59:07;99451.56;;;19.76;70.17
55538;BME280;41383;51.418;7.286;2023-07-30T10:01:38;99457.88;;;19.85;69.43
55538;BME280;41383;51.418;7.286;2023-07-30T10:04:10;99455.34;;;20.23;70.99
55538;BME280;41383;51.418;7.286;2023-07-30T10:06:39;99453.34;;;20.02;67.51
55538;BME280;41383;51.418;7.286;2023-07-30T10:09:07;99446.63;;;20.12;66.95
55538;BME280;41383;51.418;7.286;2023-07-30T10:11:34;99455.59;;;20.30;67.28
55538;BME280;41383;51.418;7.286;2023-07-30T10:14:01;99445.44;;;20.22;66.63
55538;BME280;41383;51.418;7.286;2023-07-30T10:16:27;99452.38;;;20.28;65.91
55538;BME280;41383;51.418;7.286;2023-07-30T10:18:56;99455.00;;;20.46;66.83
55538;BME280;41383;51.418;7.286;2023-07-30T10:21:24;99462.16;;;20.81;65.60
55538;BME280;41383;51.418;7.286;2023-07-30T10:23:58;99448.81;;;20.61;63.61
55538;BME280;41383;51.418;7.286;2023-07-30T10:26:27;99454.66;;;20.47;65.23
55538;BME280;41383;51.418;7.286;2023-07-30T10:29:12;99446.88;;;20.40;64.01
55538;BME280;41383;51.418;7.286;2023-07-30T10:31:43;99456.69;;;20.16;62.77
55538;BME280;41383;51.418;7.286;2023-07-30T10:34:09;99444.53;;;20.51;64.07
55538;BME280;41383;51.418;7.286;2023-07-30T10:36:47;99448.94;;;20.65;62.88
55538;BME280;41383;51.418;7.286;2023-07-30T10:41:47;99452.97;;;21.02;61.80
55538;BME280;41383;51.418;7.286;2023-07-30T10:44:25;99455.03;;;20.92;60.15
55538;BME280;41383;51.418;7.286;2023-07-30T10:46:52;99457.69;;;20.88;61.18
55538;BME280;41383;51.418;7.286;2023-07-30T10:49:17;99445.50;;;20.68;61.05
55538;BME280;41383;51.418;7.286;2023-07-30T10:51:42;99447.38;;;20.76;61.74
55538;BME280;41383;51.418;7.286;2023-07-30T10:54:08;99450.03;;;20.85;62.64
55538;BME280;41383;51.418;7.286;2023-07-30T10:56:35;99451.13;;;20.59;62.38
55538;BME280;41383;51.418;7.286;2023-07-30T10:59:03;99455.19;;;20.40;62.30
55538;BME280;41383;51.418;7.286;2023-07-30T11:01:29;99450.59;;;20.45;63.12
55538;BME280;41383;51.418;7.286;2023-07-30T11:03:54;99455.59;;;20.51;62.93
55538;BME280;41383;51.418;7.286;2023-07-30T11:06:24;99455.88;;;20.37;61.97
55538;BME280;41383;51.418;7.286;2023-07-30T11:08:49;99454.59;;;20.35;63.16
55538;BME280;41383;51.418;7.286;2023-07-30T11:11:15;99456.41;;;20.30;62.57
55538;BME280;41383;51.418;7.286;2023-07-30T11:13:45;99454.94;;;20.33;62.15
55538;BME280;41383;51.418;7.286;2023-07-30T11:16:15;99451.66;;;20.52;62.05
55538;BME280;41383;51.418;7.286;2023-07-30T11:18:42;99448.03;;;21.07;61.69
55538;BME280;41383;51.418;7.286;2023-07-30T11:21:13;99445.53;;;21.27;60.97
55538;BME280;41383;51.418;7.286;2023-07-30T11:23:40;99454.31;;;21.29;60.80
55538;BME280;41383;51.418;7.286;2023-07-30T11:26:08;99441.94;;;21.39;59.75
55538;BME280;41383;51.418;7.286;2023-07-30T11:28:36;99461.00;;;21.41;58.54
55538;BME280;41383;51.418;7.286;2023-07-30T11:31:04;99446.91;;;21.58;58.23
55538;BME280;41383;51.418;7.286;2023-07-30T11:33:30;99467.81;;;21.56;58.16
55538;BME280;41383;51.418;7.286;2023-07-30T11:35:55;99458.69;;;21.30;57.07
55538;BME280;41383;51.418;7.286;2023-07-30T11:38:25;99458.09;;;21.25;58.10
55538;BME280;41383;51.418;7.286;2023-07-30T11:40:52;99469.97;;;21.13;58.80
55538;BME280;41383;51.418;7.286;2023-07-30T11:43:17;99471.34;;;21.06;59.10
55538;BME280;41383;51.418;7.286;2023-07-30T11:45:43;99467.66;;;21.02;60.36
55538;BME280;41383;51.418;7.286;2023-07-30T11:48:10;99466.31;;;21.33;59.52
55538;BME280;41383;51.418;7.286;2023-07-30T11:50:44;99468.16;;;21.54;58.63
55538;BME280;41383;51.418;7.286;2023-07-30T11:53:10;99465.50;;;21.33;58.85
55538;BME280;41383;51.418;7.286;2023-07-30T11:55:39;99461.22;;;21.48;59.00
55538;BME280;41383;51.418;7.286;2023-07-30T11:58:08;99461.72;;;21.38;58.31
55538;BME280;41383;51.418;7.286;2023-07-30T12:00:38;99446.44;;;21.31;57.39
55538;BME280;41383;51.418;7.286;2023-07-30T12:03:10;99457.75;;;21.39;58.04
55538;BME280;41383;51.418;7.286;2023-07-30T12:05:37;99453.38;;;21.38;58.54
55538;BME280;41383;51.418;7.286;2023-07-30T12:08:05;99464.44;;;21.50;58.29
55538;BME280;41383;51.418;7.286;2023-07-30T12:10:45;99444.38;;;21.41;56.43
55538;BME280;41383;51.418;7.286;2023-07-30T12:13:18;99443.53;;;21.40;56.74
55538;BME280;41383;51.418;7.286;2023-07-30T12:15:53;99445.53;;;21.40;56.26
55538;BME280;41383;51.418;7.286;2023-07-30T12:18:20;99435.22;;;21.53;55.84
55538;BME280;41383;51.418;7.286;2023-07-30T12:20:47;99439.50;;;21.88;56.09
55538;BME280;41383;51.418;7.286;2023-07-30T12:23:13;99447.47;;;21.89;55.17
55538;BME280;41383;51.418;7.286;2023-07-30T12:25:38;99457.31;;;21.49;55.42
55538;BME280;41383;51.418;7.286;2023-07-30T12:28:04;99453.38;;;21.63;56.07
55538;BME280;41383;51.418;7.286;2023-07-30T12:30:29;99453.44;;;22.04;54.85
55538;BME280;41383;51.418;7.286;2023-07-30T12:32:55;99456.44;;;22.40;54.11
55538;BME280;41383;51.418;7.286;2023-07-30T12:35:21;99445.47;;;22.60;54.80
55538;BME280;41383;51.418;7.286;2023-07-30T12:37:46;99450.41;;;22.79;53.83
55538;BME280;41383;51.418;7.286;2023-07-30T12:40:11;99452.88;;;22.68;53.44
55538;BME280;41383;51.418;7.286;2023-07-30T12:42:37;99458.22;;;22.90;52.86
55538;BME280;41383;51.418;7.286;2023-07-30T12:45:02;99459.81;;;22.91;52.70
55538;BME280;41383;51.418;7.286;2023-07-30T12:47:27;99463.06;;;22.93;51.71
55538;BME280;41383;51.418;7.286;2023-07-30T12:49:53;99450.09;;;22.68;51.72
55538;BME280;41383;51.418;7.286;2023-07-30T12:52:18;99460.91;;;22.86;52.20
55538;BME280;41383;51.418;7.286;2023-07-30T12:54:43;99452.88;;;22.68;51.76
55538;BME280;41383;51.418;7.286;2023-07-30T12:57:09;99464.94;;;22.60;53.19